sensor_id;sensor_type;location;lat;lon;timestamp;P1;durP1;ratioP1;P2;durP2;ratioP2
23567;SDS011;11962;50.838;4.430;2024-01-07T00:00:12;12.20;;;8.93;;
23567;SDS011;11962;50.838;4.430;2024-01-07T00:02:38;12.63;;;8.98;;
23567;SDS011;11962;50.838;4.430;2024-01-07T00:05:04;12.05;;;8.98;;
23567;SDS011;11962;50.838;4.430;2024-01-07T00:07:30;13.88;;;9.05;;
23567;SDS011;11962;50.838;4.430;2024-01-07T00:09:55;14.43;;;9.30;;
23567;SDS011;11962;50.838;4.430;2024-01-07T00:12:21;14.50;;;9.13;;
23567;SDS011;11962;50.838;4.430;2024-01-07T00:14:47;12.90;;;9.00;;
23567;SDS011;11962;50.838;4.430;2024-01-07T00:17:13;13.95;;;9.10;;
23567;SDS011;11962;50.838;4.430;2024-01-07T00:19:39;13.35;;;9.40;;
23567;SDS011;11962;50.838;4.430;2024-01-07T00:22:05;15.68;;;9.50;;
23567;SDS011;11962;50.838;4.430;2024-01-07T00:24:31;14.02;;;9.18;;
23567;SDS011;11962;50.838;4.430;2024-01-07T00:26:57;15.70;;;9.38;;
23567;SDS011;11962;50.838;4.430;2024-01-07T00:29:22;14.93;;;9.52;;
23567;SDS011;11962;50.838;4.430;2024-01-07T00:31:48;14.32;;;10.10;;
23567;SDS011;11962;50.838;4.430;2024-01-07T00:34:14;13.95;;;9.15;;
23567;SDS011;11962;50.838;4.430;2024-01-07T00:36:39;16.83;;;10.45;;
23567;SDS011;11962;50.838;4.430;2024-01-07T00:39:05;14.13;;;10.38;;
23567;SDS011;11962;50.838;4.430;2024-01-07T00:41:31;14.60;;;10.05;;
23567;SDS011;11962;50.838;4.430;2024-01-07T00:43:57;15.18;;;10.68;;
23567;SDS011;11962;50.838;4.430;2024-01-07T00:46:22;16.52;;;10.05;;
23567;SDS011;11962;50.838;4.430;2024-01-07T00:48:48;13.40;;;9.40;;
23567;SDS011;11962;50.838;4.430;2024-01-07T00:51:14;14.57;;;10.00;;
23567;SDS011;11962;50.838;4.430;2024-01-07T00:53:40;13.73;;;9.95;;
23567;SDS011;11962;50.838;4.430;2024-01-07T00:56:06;13.60;;;10.13;;
23567;SDS011;11962;50.838;4.430;2024-01-07T00:58:32;14.32;;;10.02;;
23567;SDS011;11962;50.838;4.430;2024-01-07T01:00:58;15.23;;;9.95;;
23567;SDS011;11962;50.838;4.430;2024-01-07T01:03:25;13.98;;;9.73;;
23567;SDS011;11962;50.838;4.430;2024-01-07T01:05:51;13.13;;;9.23;;
23567;SDS011;11962;50.838;4.430;2024-01-07T01:08:17;14.20;;;10.25;;
23567;SDS011;11962;50.838;4.430;2024-01-07T01:10:43;14.30;;;9.57;;
23567;SDS011;11962;50.838;4.430;2024-01-07T01:13:09;12.88;;;9.80;;
23567;SDS011;11962;50.838;4.430;2024-01-07T01:15:34;13.25;;;9.82;;
23567;SDS011;11962;50.838;4.430;2024-01-07T01:18:00;14.25;;;9.32;;
23567;SDS011;11962;50.838;4.430;2024-01-07T01:20:26;13.73;;;9.63;;
23567;SDS011;11962;50.838;4.430;2024-01-07T01:22:52;13.82;;;10.00;;
23567;SDS011;11962;50.838;4.430;2024-01-07T01:25:17;14.32;;;9.93;;
23567;SDS011;11962;50.838;4.430;2024-01-07T01:27:43;17.58;;;10.40;;
23567;SDS011;11962;50.838;4.430;2024-01-07T01:30:10;15.75;;;10.48;;
23567;SDS011;11962;50.838;4.430;2024-01-07T01:32:36;16.83;;;10.65;;
23567;SDS011;11962;50.838;4.430;2024-01-07T01:35:04;14.02;;;10.40;;
23567;SDS011;11962;50.838;4.430;2024-01-07T01:37:30;15.52;;;10.52;;
23567;SDS011;11962;50.838;4.430;2024-01-07T01:39:57;15.30;;;10.32;;
23567;SDS011;11962;50.838;4.430;2024-01-07T01:42:24;15.70;;;10.07;;
23567;SDS011;11962;50.838;4.430;2024-01-07T01:44:49;14.68;;;10.63;;
23567;SDS011;11962;50.838;4.430;2024-01-07T01:47:16;15.40;;;10.85;;
23567;SDS011;11962;50.838;4.430;2024-01-07T01:49:43;15.35;;;11.55;;
23567;SDS011;11962;50.838;4.430;2024-01-07T01:52:10;14.98;;;10.95;;
23567;SDS011;11962;50.838;4.430;2024-01-07T01:54:37;16.70;;;11.48;;
23567;SDS011;11962;50.838;4.430;2024-01-07T01:57:03;16.00;;;10.88;;
23567;SDS011;11962;50.838;4.430;2024-01-07T01:59:30;15.77;;;10.43;;
23567;SDS011;11962;50.838;4.430;2024-01-07T02:01:57;18.30;;;11.45;;
23567;SDS011;11962;50.838;4.430;2024-01-07T02:04:22;15.52;;;10.88;;
23567;SDS011;11962;50.838;4.430;2024-01-07T02:06:48;18.52;;;11.68;;
23567;SDS011;11962;50.838;4.430;2024-01-07T02:09:14;15.98;;;10.77;;
23567;SDS011;11962;50.838;4.430;2024-01-07T02:11:39;18.15;;;10.38;;
23567;SDS011;11962;50.838;4.430;2024-01-07T02:14:05;15.52;;;11.05;;
23567;SDS011;11962;50.838;4.430;2024-01-07T02:16:31;14.60;;;9.93;;
23567;SDS011;11962;50.838;4.430;2024-01-07T02:18:57;14.10;;;9.85;;
23567;SDS011;11962;50.838;4.430;2024-01-07T02:21:23;15.88;;;10.38;;
23567;SDS011;11962;50.838;4.430;2024-01-07T02:23:49;15.40;;;9.32;;
23567;SDS011;11962;50.838;4.430;2024-01-07T02:26:15;14.48;;;9.85;;
23567;SDS011;11962;50.838;4.430;2024-01-07T02:28:41;12.88;;;9.18;;
23567;SDS011;11962;50.838;4.430;2024-01-07T02:31:06;13.02;;;8.88;;
23567;SDS011;11962;50.838;4.430;2024-01-07T02:33:32;15.40;;;9.43;;
23567;SDS011;11962;50.838;4.430;2024-01-07T02:35:58;12.45;;;8.43;;
23567;SDS011;11962;50.838;4.430;2024-01-07T02:38:23;12.20;;;8.55;;
23567;SDS011;11962;50.838;4.430;2024-01-07T02:40:49;11.88;;;8.60;;
23567;SDS011;11962;50.838;4.430;2024-01-07T02:43:15;13.10;;;9.00;;
23567;SDS011;11962;50.838;4.430;2024-01-07T02:45:40;14.63;;;9.77;;
23567;SDS011;11962;50.838;4.430;2024-01-07T02:48:06;13.35;;;10.02;;
23567;SDS011;11962;50.838;4.430;2024-01-07T02:50:32;16.10;;;9.75;;
23567;SDS011;11962;50.838;4.430;2024-01-07T02:52:58;17.48;;;11.07;;
23567;SDS011;11962;50.838;4.430;2024-01-07T02:55:24;15.30;;;9.80;;
23567;SDS011;11962;50.838;4.430;2024-01-07T02:57:49;15.70;;;10.68;;
23567;SDS011;11962;50.838;4.430;2024-01-07T03:00:15;14.55;;;10.23;;
23567;SDS011;11962;50.838;4.430;2024-01-07T03:02:41;16.13;;;9.98;;
23567;SDS011;11962;50.838;4.430;2024-01-07T03:05:07;16.85;;;11.30;;
23567;SDS011;11962;50.838;4.430;2024-01-07T03:07:33;17.05;;;11.70;;
23567;SDS011;11962;50.838;4.430;2024-01-07T03:09:59;17.50;;;12.15;;
23567;SDS011;11962;50.838;4.430;2024-01-07T03:12:24;19.40;;;13.00;;
23567;SDS011;11962;50.838;4.430;2024-01-07T03:14:50;19.38;;;12.90;;
23567;SDS011;11962;50.838;4.430;2024-01-07T03:17:16;18.55;;;12.02;;
23567;SDS011;11962;50.838;4.430;2024-01-07T03:19:42;19.63;;;13.30;;
23567;SDS011;11962;50.838;4.430;2024-01-07T03:22:08;20.40;;;13.07;;
23567;SDS011;11962;50.838;4.430;2024-01-07T03:24:34;20.38;;;13.32;;
23567;SDS011;11962;50.838;4.430;2024-01-07T03:26:59;18.92;;;13.25;;
23567;SDS011;11962;50.838;4.430;2024-01-07T03:29:25;19.65;;;12.90;;
23567;SDS011;11962;50.838;4.430;2024-01-07T03:31:51;21.05;;;13.90;;
23567;SDS011;11962;50.838;4.430;2024-01-07T03:34:18;20.75;;;13.27;;
23567;SDS011;11962;50.838;4.430;2024-01-07T03:36:44;20.77;;;13.73;;
23567;SDS011;11962;50.838;4.430;2024-01-07T03:39:10;20.95;;;13.85;;
23567;SDS011;11962;50.838;4.430;2024-01-07T03:41:36;24.25;;;14.80;;
23567;SDS011;11962;50.838;4.430;2024-01-07T03:44:02;25.35;;;15.82;;
23567;SDS011;11962;50.838;4.430;2024-01-07T03:46:27;24.10;;;14.65;;
23567;SDS011;11962;50.838;4.430;2024-01-07T03:48:53;22.08;;;14.82;;
23567;SDS011;11962;50.838;4.430;2024-01-07T03:51:19;22.73;;;15.02;;
23567;SDS011;11962;50.838;4.430;2024-01-07T03:53:44;22.33;;;14.50;;
23567;SDS011;11962;50.838;4.430;2024-01-07T03:56:10;24.38;;;15.20;;
23567;SDS011;11962;50.838;4.430;2024-01-07T03:58:36;22.42;;;15.13;;
23567;SDS011;11962;50.838;4.430;2024-01-07T04:01:02;24.52;;;15.45;;
23567;SDS011;11962;50.838;4.430;2024-01-07T04:03:27;24.42;;;14.95;;
23567;SDS011;11962;50.838;4.430;2024-01-07T04:05:53;25.15;;;15.80;;
23567;SDS011;11962;50.838;4.430;2024-01-07T04:08:19;25.75;;;15.98;;
23567;SDS011;11962;50.838;4.430;2024-01-07T04:10:45;27.58;;;17.10;;
23567;SDS011;11962;50.838;4.430;2024-01-07T04:13:10;26.75;;;17.27;;
23567;SDS011;11962;50.838;4.430;2024-01-07T04:15:36;30.33;;;17.88;;
23567;SDS011;11962;50.838;4.430;2024-01-07T04:18:02;32.10;;;17.83;;
23567;SDS011;11962;50.838;4.430;2024-01-07T04:20:29;33.58;;;20.05;;
23567;SDS011;11962;50.838;4.430;2024-01-07T04:22:55;34.17;;;20.05;;
23567;SDS011;11962;50.838;4.430;2024-01-07T04:25:22;36.15;;;22.33;;
23567;SDS011;11962;50.838;4.430;2024-01-07T04:27:48;36.60;;;22.13;;
23567;SDS011;11962;50.838;4.430;2024-01-07T04:30:13;36.67;;;22.25;;
23567;SDS011;11962;50.838;4.430;2024-01-07T04:32:39;41.80;;;22.25;;
23567;SDS011;11962;50.838;4.430;2024-01-07T04:35:05;36.85;;;21.92;;
23567;SDS011;11962;50.838;4.430;2024-01-07T04:37:31;36.92;;;22.05;;
23567;SDS011;11962;50.838;4.430;2024-01-07T04:39:57;34.75;;;21.38;;
23567;SDS011;11962;50.838;4.430;2024-01-07T04:42:23;37.03;;;22.10;;
23567;SDS011;11962;50.838;4.430;2024-01-07T04:44:49;39.13;;;22.58;;
23567;SDS011;11962;50.838;4.430;2024-01-07T04:47:31;35.22;;;20.52;;
23567;SDS011;11962;50.838;4.430;2024-01-07T04:50:00;37.25;;;20.95;;
23567;SDS011;11962;50.838;4.430;2024-01-07T04:52:26;40.60;;;21.35;;
23567;SDS011;11962;50.838;4.430;2024-01-07T04:54:53;36.80;;;21.48;;
23567;SDS011;11962;50.838;4.430;2024-01-07T04:57:19;36.30;;;21.52;;
23567;SDS011;11962;50.838;4.430;2024-01-07T04:59:45;36.10;;;21.35;;
23567;SDS011;11962;50.838;4.430;2024-01-07T05:02:12;34.42;;;21.48;;
23567;SDS011;11962;50.838;4.430;2024-01-07T05:04:37;38.90;;;22.25;;
23567;SDS011;11962;50.838;4.430;2024-01-07T05:07:03;34.78;;;21.23;;
23567;SDS011;11962;50.838;4.430;2024-01-07T05:09:29;38.42;;;22.27;;
23567;SDS011;11962;50.838;4.430;2024-01-07T05:11:55;36.30;;;21.42;;
23567;SDS011;11962;50.838;4.430;2024-01-07T05:14:21;36.92;;;21.52;;
23567;SDS011;11962;50.838;4.430;2024-01-07T05:16:47;39.05;;;22.65;;
23567;SDS011;11962;50.838;4.430;2024-01-07T05:19:13;38.90;;;21.83;;
23567;SDS011;11962;50.838;4.430;2024-01-07T05:21:39;37.95;;;22.33;;
23567;SDS011;11962;50.838;4.430;2024-01-07T05:24:05;41.05;;;23.52;;
23567;SDS011;11962;50.838;4.430;2024-01-07T05:26:37;42.55;;;22.80;;
23567;SDS011;11962;50.838;4.430;2024-01-07T05:29:07;37.33;;;22.35;;
23567;SDS011;11962;50.838;4.430;2024-01-07T05:31:33;37.05;;;21.92;;
23567;SDS011;11962;50.838;4.430;2024-01-07T05:33:58;36.55;;;21.52;;
23567;SDS011;11962;50.838;4.430;2024-01-07T05:36:24;37.72;;;21.25;;
23567;SDS011;11962;50.838;4.430;2024-01-07T05:38:50;35.58;;;21.50;;
23567;SDS011;11962;50.838;4.430;2024-01-07T05:41:16;34.53;;;21.58;;
23567;SDS011;11962;50.838;4.430;2024-01-07T05:43:41;36.13;;;21.17;;
23567;SDS011;11962;50.838;4.430;2024-01-07T05:46:07;35.05;;;20.63;;
23567;SDS011;11962;50.838;4.430;2024-01-07T05:48:46;33.47;;;21.15;;
23567;SDS011;11962;50.838;4.430;2024-01-07T05:51:13;38.90;;;21.70;;
23567;SDS011;11962;50.838;4.430;2024-01-07T05:53:40;35.45;;;20.85;;
23567;SDS011;11962;50.838;4.430;2024-01-07T05:56:06;34.70;;;21.40;;
23567;SDS011;11962;50.838;4.430;2024-01-07T05:58:32;35.75;;;21.27;;
23567;SDS011;11962;50.838;4.430;2024-01-07T06:00:58;37.25;;;20.83;;
23567;SDS011;11962;50.838;4.430;2024-01-07T06:03:24;36.60;;;21.88;;
23567;SDS011;11962;50.838;4.430;2024-01-07T06:05:49;37.00;;;20.95;;
23567;SDS011;11962;50.838;4.430;2024-01-07T06:08:15;38.20;;;22.02;;
23567;SDS011;11962;50.838;4.430;2024-01-07T06:10:41;34.17;;;20.63;;
23567;SDS011;11962;50.838;4.430;2024-01-07T06:13:06;35.10;;;20.65;;
23567;SDS011;11962;50.838;4.430;2024-01-07T06:15:32;38.08;;;22.48;;
23567;SDS011;11962;50.838;4.430;2024-01-07T06:17:58;35.38;;;21.38;;
23567;SDS011;11962;50.838;4.430;2024-01-07T06:20:24;33.65;;;20.35;;
23567;SDS011;11962;50.838;4.430;2024-01-07T06:22:50;37.50;;;21.33;;
23567;SDS011;11962;50.838;4.430;2024-01-07T06:25:16;36.53;;;21.58;;
23567;SDS011;11962;50.838;4.430;2024-01-07T06:27:41;35.72;;;20.73;;
23567;SDS011;11962;50.838;4.430;2024-01-07T06:30:08;37.72;;;21.42;;
23567;SDS011;11962;50.838;4.430;2024-01-07T06:32:34;35.25;;;20.20;;
23567;SDS011;11962;50.838;4.430;2024-01-07T06:35:00;37.45;;;21.25;;
23567;SDS011;11962;50.838;4.430;2024-01-07T06:37:28;38.33;;;20.83;;
23567;SDS011;11962;50.838;4.430;2024-01-07T06:39:55;34.35;;;20.38;;
23567;SDS011;11962;50.838;4.430;2024-01-07T06:42:24;34.72;;;20.25;;
23567;SDS011;11962;50.838;4.430;2024-01-07T06:44:49;36.10;;;20.70;;
23567;SDS011;11962;50.838;4.430;2024-01-07T06:47:15;34.15;;;20.25;;
23567;SDS011;11962;50.838;4.430;2024-01-07T06:49:41;35.28;;;20.33;;
23567;SDS011;11962;50.838;4.430;2024-01-07T06:52:07;39.88;;;20.55;;
23567;SDS011;11962;50.838;4.430;2024-01-07T06:54:33;34.50;;;18.88;;
23567;SDS011;11962;50.838;4.430;2024-01-07T06:56:59;38.30;;;19.55;;
23567;SDS011;11962;50.838;4.430;2024-01-07T06:59:24;33.55;;;18.52;;
23567;SDS011;11962;50.838;4.430;2024-01-07T07:01:50;35.88;;;19.60;;
23567;SDS011;11962;50.838;4.430;2024-01-07T07:04:16;36.80;;;20.52;;
23567;SDS011;11962;50.838;4.430;2024-01-07T07:06:42;37.10;;;20.42;;
23567;SDS011;11962;50.838;4.430;2024-01-07T07:09:07;36.40;;;20.25;;
23567;SDS011;11962;50.838;4.430;2024-01-07T07:11:33;40.67;;;21.10;;
23567;SDS011;11962;50.838;4.430;2024-01-07T07:13:59;42.22;;;20.55;;
23567;SDS011;11962;50.838;4.430;2024-01-07T07:16:25;40.13;;;20.42;;
23567;SDS011;11962;50.838;4.430;2024-01-07T07:18:51;44.13;;;21.00;;
23567;SDS011;11962;50.838;4.430;2024-01-07T07:21:17;37.15;;;20.50;;
23567;SDS011;11962;50.838;4.430;2024-01-07T07:23:43;43.17;;;20.83;;
23567;SDS011;11962;50.838;4.430;2024-01-07T07:26:08;39.88;;;21.10;;
23567;SDS011;11962;50.838;4.430;2024-01-07T07:28:34;42.75;;;21.38;;
23567;SDS011;11962;50.838;4.430;2024-01-07T07:31:00;44.05;;;21.38;;
23567;SDS011;11962;50.838;4.430;2024-01-07T07:33:25;45.88;;;21.98;;
23567;SDS011;11962;50.838;4.430;2024-01-07T07:35:51;46.60;;;21.80;;
23567;SDS011;11962;50.838;4.430;2024-01-07T07:38:17;44.45;;;21.80;;
23567;SDS011;11962;50.838;4.430;2024-01-07T07:40:43;48.38;;;22.95;;
23567;SDS011;11962;50.838;4.430;2024-01-07T07:43:10;47.53;;;22.58;;
23567;SDS011;11962;50.838;4.430;2024-01-07T07:45:35;41.92;;;22.20;;
23567;SDS011;11962;50.838;4.430;2024-01-07T07:48:01;42.88;;;23.05;;
23567;SDS011;11962;50.838;4.430;2024-01-07T07:50:27;42.67;;;23.17;;
23567;SDS011;11962;50.838;4.430;2024-01-07T07:52:53;47.45;;;23.63;;
23567;SDS011;11962;50.838;4.430;2024-01-07T07:55:19;49.30;;;24.17;;
23567;SDS011;11962;50.838;4.430;2024-01-07T07:57:44;47.45;;;24.45;;
23567;SDS011;11962;50.838;4.430;2024-01-07T08:00:11;51.50;;;24.95;;
23567;SDS011;11962;50.838;4.430;2024-01-07T08:02:38;48.42;;;23.70;;
23567;SDS011;11962;50.838;4.430;2024-01-07T08:05:05;43.65;;;23.95;;
23567;SDS011;11962;50.838;4.430;2024-01-07T08:07:32;44.65;;;23.17;;
23567;SDS011;11962;50.838;4.430;2024-01-07T08:09:57;47.33;;;24.52;;
23567;SDS011;11962;50.838;4.430;2024-01-07T08:12:23;44.45;;;23.35;;
23567;SDS011;11962;50.838;4.430;2024-01-07T08:14:49;43.75;;;22.10;;
23567;SDS011;11962;50.838;4.430;2024-01-07T08:17:15;45.00;;;23.15;;
23567;SDS011;11962;50.838;4.430;2024-01-07T08:19:41;43.20;;;22.40;;
23567;SDS011;11962;50.838;4.430;2024-01-07T08:22:07;36.63;;;21.05;;
23567;SDS011;11962;50.838;4.430;2024-01-07T08:24:34;42.33;;;22.85;;
23567;SDS011;11962;50.838;4.430;2024-01-07T08:27:00;44.65;;;21.60;;
23567;SDS011;11962;50.838;4.430;2024-01-07T08:29:28;43.58;;;22.50;;
23567;SDS011;11962;50.838;4.430;2024-01-07T08:31:54;42.75;;;21.55;;
23567;SDS011;11962;50.838;4.430;2024-01-07T08:34:20;39.85;;;20.38;;
23567;SDS011;11962;50.838;4.430;2024-01-07T08:36:46;38.63;;;20.17;;
23567;SDS011;11962;50.838;4.430;2024-01-07T08:39:14;37.22;;;18.85;;
23567;SDS011;11962;50.838;4.430;2024-01-07T08:41:40;30.63;;;17.20;;
23567;SDS011;11962;50.838;4.430;2024-01-07T08:44:06;34.75;;;18.58;;
23567;SDS011;11962;50.838;4.430;2024-01-07T08:46:33;33.83;;;16.90;;
23567;SDS011;11962;50.838;4.430;2024-01-07T08:48:59;32.00;;;17.40;;
23567;SDS011;11962;50.838;4.430;2024-01-07T08:51:25;29.40;;;17.45;;
23567;SDS011;11962;50.838;4.430;2024-01-07T08:53:51;31.83;;;16.67;;
23567;SDS011;11962;50.838;4.430;2024-01-07T08:56:16;26.35;;;15.98;;
23567;SDS011;11962;50.838;4.430;2024-01-07T08:58:42;29.70;;;17.48;;
23567;SDS011;11962;50.838;4.430;2024-01-07T09:01:08;29.20;;;16.08;;
23567;SDS011;11962;50.838;4.430;2024-01-07T09:03:34;32.50;;;16.75;;
23567;SDS011;11962;50.838;4.430;2024-01-07T09:05:59;26.45;;;15.60;;
23567;SDS011;11962;50.838;4.430;2024-01-07T09:08:25;28.25;;;16.10;;
23567;SDS011;11962;50.838;4.430;2024-01-07T09:10:51;27.33;;;15.25;;
23567;SDS011;11962;50.838;4.430;2024-01-07T09:13:16;28.40;;;17.20;;
23567;SDS011;11962;50.838;4.430;2024-01-07T09:15:42;24.50;;;16.27;;
23567;SDS011;11962;50.838;4.430;2024-01-07T09:18:08;30.67;;;17.13;;
23567;SDS011;11962;50.838;4.430;2024-01-07T09:20:33;27.75;;;16.63;;
23567;SDS011;11962;50.838;4.430;2024-01-07T09:22:59;27.65;;;16.17;;
23567;SDS011;11962;50.838;4.430;2024-01-07T09:25:25;27.50;;;16.65;;
23567;SDS011;11962;50.838;4.430;2024-01-07T09:27:51;28.67;;;16.27;;
23567;SDS011;11962;50.838;4.430;2024-01-07T09:30:17;28.80;;;16.90;;
23567;SDS011;11962;50.838;4.430;2024-01-07T09:32:43;28.75;;;17.17;;
23567;SDS011;11962;50.838;4.430;2024-01-07T09:35:09;29.33;;;17.20;;
23567;SDS011;11962;50.838;4.430;2024-01-07T09:37:35;30.33;;;17.20;;
23567;SDS011;11962;50.838;4.430;2024-01-07T09:40:01;27.17;;;16.30;;
23567;SDS011;11962;50.838;4.430;2024-01-07T09:42:29;28.08;;;15.70;;
23567;SDS011;11962;50.838;4.430;2024-01-07T09:44:55;28.10;;;15.85;;
23567;SDS011;11962;50.838;4.430;2024-01-07T09:47:21;26.25;;;16.20;;
23567;SDS011;11962;50.838;4.430;2024-01-07T09:49:48;27.00;;;16.90;;
23567;SDS011;11962;50.838;4.430;2024-01-07T09:52:14;28.23;;;17.23;;
23567;SDS011;11962;50.838;4.430;2024-01-07T09:54:42;26.55;;;16.08;;
23567;SDS011;11962;50.838;4.430;2024-01-07T09:57:11;26.92;;;16.77;;
23567;SDS011;11962;50.838;4.430;2024-01-07T09:59:37;26.27;;;15.60;;
23567;SDS011;11962;50.838;4.430;2024-01-07T10:02:04;25.20;;;15.85;;
23567;SDS011;11962;50.838;4.430;2024-01-07T10:04:30;24.95;;;16.17;;
23567;SDS011;11962;50.838;4.430;2024-01-07T10:06:56;27.10;;;16.25;;
23567;SDS011;11962;50.838;4.430;2024-01-07T10:09:22;25.48;;;15.85;;
23567;SDS011;11962;50.838;4.430;2024-01-07T10:11:50;29.83;;;17.42;;
23567;SDS011;11962;50.838;4.430;2024-01-07T10:14:16;25.63;;;16.23;;
23567;SDS011;11962;50.838;4.430;2024-01-07T10:16:42;24.77;;;16.45;;
23567;SDS011;11962;50.838;4.430;2024-01-07T10:19:08;26.35;;;17.05;;
23567;SDS011;11962;50.838;4.430;2024-01-07T10:21:34;24.77;;;16.33;;
23567;SDS011;11962;50.838;4.430;2024-01-07T10:24:12;26.30;;;16.77;;
23567;SDS011;11962;50.838;4.430;2024-01-07T10:26:38;27.63;;;17.00;;
23567;SDS011;11962;50.838;4.430;2024-01-07T10:29:08;27.05;;;16.33;;
23567;SDS011;11962;50.838;4.430;2024-01-07T10:31:33;29.95;;;16.83;;
23567;SDS011;11962;50.838;4.430;2024-01-07T10:33:59;29.80;;;17.23;;
23567;SDS011;11962;50.838;4.430;2024-01-07T10:36:25;28.38;;;17.05;;
23567;SDS011;11962;50.838;4.430;2024-01-07T10:38:52;29.73;;;17.02;;
23567;SDS011;11962;50.838;4.430;2024-01-07T10:41:20;32.40;;;18.27;;
23567;SDS011;11962;50.838;4.430;2024-01-07T10:43:46;28.90;;;17.77;;
23567;SDS011;11962;50.838;4.430;2024-01-07T10:46:13;30.77;;;18.50;;
23567;SDS011;11962;50.838;4.430;2024-01-07T10:48:42;30.45;;;18.90;;
23567;SDS011;11962;50.838;4.430;2024-01-07T10:51:16;27.65;;;18.33;;
23567;SDS011;11962;50.838;4.430;2024-01-07T10:53:46;31.58;;;19.08;;
23567;SDS011;11962;50.838;4.430;2024-01-07T10:56:16;31.35;;;18.42;;
23567;SDS011;11962;50.838;4.430;2024-01-07T10:58:47;29.67;;;17.75;;
23567;SDS011;11962;50.838;4.430;2024-01-07T11:01:14;28.40;;;17.80;;
23567;SDS011;11962;50.838;4.430;2024-01-07T11:03:40;30.45;;;18.80;;
23567;SDS011;11962;50.838;4.430;2024-01-07T11:06:31;28.65;;;17.85;;
23567;SDS011;11962;50.838;4.430;2024-01-07T11:12:00;28.35;;;17.95;;
23567;SDS011;11962;50.838;4.430;2024-01-07T11:14:35;26.33;;;17.33;;
23567;SDS011;11962;50.838;4.430;2024-01-07T11:17:12;25.40;;;16.77;;
23567;SDS011;11962;50.838;4.430;2024-01-07T11:19:50;25.02;;;15.90;;
23567;SDS011;11962;50.838;4.430;2024-01-07T11:24:53;24.80;;;15.60;;
23567;SDS011;11962;50.838;4.430;2024-01-07T11:27:21;23.00;;;14.43;;
23567;SDS011;11962;50.838;4.430;2024-01-07T11:29:54;22.92;;;13.95;;
23567;SDS011;11962;50.838;4.430;2024-01-07T11:32:44;23.85;;;13.40;;
23567;SDS011;11962;50.838;4.430;2024-01-07T11:35:13;21.15;;;13.80;;
23567;SDS011;11962;50.838;4.430;2024-01-07T11:37:40;23.33;;;14.23;;
23567;SDS011;11962;50.838;4.430;2024-01-07T11:40:06;24.77;;;12.98;;
23567;SDS011;11962;50.838;4.430;2024-01-07T11:42:33;23.58;;;13.63;;
23567;SDS011;11962;50.838;4.430;2024-01-07T11:44:59;21.38;;;13.27;;
23567;SDS011;11962;50.838;4.430;2024-01-07T11:47:25;25.83;;;14.32;;
23567;SDS011;11962;50.838;4.430;2024-01-07T11:49:53;24.75;;;13.73;;
23567;SDS011;11962;50.838;4.430;2024-01-07T11:52:19;23.25;;;13.45;;
23567;SDS011;11962;50.838;4.430;2024-01-07T11:54:45;29.58;;;14.07;;
23567;SDS011;11962;50.838;4.430;2024-01-07T11:57:12;23.85;;;13.90;;
23567;SDS011;11962;50.838;4.430;2024-01-07T11:59:38;21.80;;;13.27;;
23567;SDS011;11962;50.838;4.430;2024-01-07T12:02:04;24.92;;;13.57;;
23567;SDS011;11962;50.838;4.430;2024-01-07T12:04:30;24.13;;;13.63;;
23567;SDS011;11962;50.838;4.430;2024-01-07T12:09:25;23.70;;;13.40;;
23567;SDS011;11962;50.838;4.430;2024-01-07T12:11:51;21.45;;;12.98;;
23567;SDS011;11962;50.838;4.430;2024-01-07T12:14:18;22.80;;;13.57;;
23567;SDS011;11962;50.838;4.430;2024-01-07T12:16:44;21.45;;;12.63;;
23567;SDS011;11962;50.838;4.430;2024-01-07T12:19:10;22.23;;;13.27;;
23567;SDS011;11962;50.838;4.430;2024-01-07T12:21:37;21.20;;;12.95;;
23567;SDS011;11962;50.838;4.430;2024-01-07T12:24:03;22.55;;;12.90;;
23567;SDS011;11962;50.838;4.430;2024-01-07T12:26:29;21.83;;;12.38;;
23567;SDS011;11962;50.838;4.430;2024-01-07T12:28:58;20.92;;;12.60;;
23567;SDS011;11962;50.838;4.430;2024-01-07T12:31:28;21.50;;;12.90;;
23567;SDS011;11962;50.838;4.430;2024-01-07T12:33:58;22.05;;;12.70;;
23567;SDS011;11962;50.838;4.430;2024-01-07T12:36:24;23.33;;;12.50;;
23567;SDS011;11962;50.838;4.430;2024-01-07T12:38:50;20.80;;;12.10;;
23567;SDS011;11962;50.838;4.430;2024-01-07T12:41:19;19.08;;;12.35;;
23567;SDS011;11962;50.838;4.430;2024-01-07T12:43:46;23.08;;;12.18;;
23567;SDS011;11962;50.838;4.430;2024-01-07T12:46:11;21.52;;;12.38;;
23567;SDS011;11962;50.838;4.430;2024-01-07T12:48:37;21.15;;;11.45;;
23567;SDS011;11962;50.838;4.430;2024-01-07T12:51:03;22.45;;;12.30;;
23567;SDS011;11962;50.838;4.430;2024-01-07T12:53:29;23.27;;;12.35;;
23567;SDS011;11962;50.838;4.430;2024-01-07T12:55:55;21.38;;;12.38;;
23567;SDS011;11962;50.838;4.430;2024-01-07T12:58:21;19.60;;;10.95;;
23567;SDS011;11962;50.838;4.430;2024-01-07T13:00:46;21.77;;;12.07;;
23567;SDS011;11962;50.838;4.430;2024-01-07T13:03:13;18.55;;;10.80;;
23567;SDS011;11962;50.838;4.430;2024-01-07T13:05:45;17.52;;;11.43;;
23567;SDS011;11962;50.838;4.430;2024-01-07T13:08:13;21.88;;;12.20;;
23567;SDS011;11962;50.838;4.430;2024-01-07T13:10:39;18.00;;;11.77;;
23567;SDS011;11962;50.838;4.430;2024-01-07T13:13:05;19.52;;;11.70;;
23567;SDS011;11962;50.838;4.430;2024-01-07T13:15:31;19.27;;;11.38;;
23567;SDS011;11962;50.838;4.430;2024-01-07T13:17:57;18.90;;;11.48;;
23567;SDS011;11962;50.838;4.430;2024-01-07T13:20:23;21.55;;;12.00;;
23567;SDS011;11962;50.838;4.430;2024-01-07T13:22:49;19.77;;;11.93;;
23567;SDS011;11962;50.838;4.430;2024-01-07T13:25:15;18.67;;;11.93;;
23567;SDS011;11962;50.838;4.430;2024-01-07T13:27:41;17.77;;;11.60;;
23567;SDS011;11962;50.838;4.430;2024-01-07T13:30:09;18.98;;;11.25;;
23567;SDS011;11962;50.838;4.430;2024-01-07T13:32:36;16.60;;;11.38;;
23567;SDS011;11962;50.838;4.430;2024-01-07T13:35:05;17.00;;;11.40;;
23567;SDS011;11962;50.838;4.430;2024-01-07T13:37:35;17.20;;;11.65;;
23567;SDS011;11962;50.838;4.430;2024-01-07T13:40:02;16.63;;;10.57;;
23567;SDS011;11962;50.838;4.430;2024-01-07T13:42:29;18.95;;;11.57;;
23567;SDS011;11962;50.838;4.430;2024-01-07T13:44:54;18.15;;;11.95;;
23567;SDS011;11962;50.838;4.430;2024-01-07T13:47:20;17.25;;;11.65;;
23567;SDS011;11962;50.838;4.430;2024-01-07T13:49:46;16.83;;;10.93;;
23567;SDS011;11962;50.838;4.430;2024-01-07T13:52:12;17.13;;;11.52;;
23567;SDS011;11962;50.838;4.430;2024-01-07T13:54:38;18.80;;;11.30;;
23567;SDS011;11962;50.838;4.430;2024-01-07T13:57:04;17.23;;;10.70;;
23567;SDS011;11962;50.838;4.430;2024-01-07T13:59:30;14.63;;;10.82;;
23567;SDS011;11962;50.838;4.430;2024-01-07T14:01:57;15.63;;;10.77;;
23567;SDS011;11962;50.838;4.430;2024-01-07T14:04:23;14.48;;;10.40;;
23567;SDS011;11962;50.838;4.430;2024-01-07T14:06:58;14.15;;;10.43;;
23567;SDS011;11962;50.838;4.430;2024-01-07T14:09:24;15.25;;;9.88;;
23567;SDS011;11962;50.838;4.430;2024-01-07T14:11:50;16.92;;;10.05;;
23567;SDS011;11962;50.838;4.430;2024-01-07T14:14:17;16.48;;;10.43;;
23567;SDS011;11962;50.838;4.430;2024-01-07T14:16:44;14.77;;;10.55;;
23567;SDS011;11962;50.838;4.430;2024-01-07T14:19:10;14.30;;;10.57;;
23567;SDS011;11962;50.838;4.430;2024-01-07T14:21:37;15.55;;;10.27;;
23567;SDS011;11962;50.838;4.430;2024-01-07T14:24:02;14.35;;;10.40;;
23567;SDS011;11962;50.838;4.430;2024-01-07T14:26:28;15.35;;;10.40;;